Time;durP1;ratioP1;P1;durP2;ratioP2;P2;SDS_P1;SDS_P2;PMS_P1;PMS_P2;Temp;Humidity;BMP_temperature;BMP_pressure;BME280_temperature;BME280_humidity;BME280_pressure;Samples;Min_cycle;Max_cycle;Signal;HPM_P1;HPM_P2
2023/12/09 00:00:43;;;;;;;2.85;1.25;;;7.50;94.00;;;;;;5134079;27;20042;-73
2023/12/09 00:03:09;;;;;;;2.67;1.20;;;7.50;94.00;;;;;;5133828;27;20043;-74
2023/12/09 00:05:35;;;;;;;0.98;0.73;;;7.50;94.00;;;;;;5111605;28;20044;-74
2023/12/09 00:08:00;;;;;;;3.80;1.35;;;7.50;94.00;;;;;;5111672;28;20353;-73
2023/12/09 00:10:26;;;;;;;3.08;1.00;;;7.50;94.00;;;;;;5111395;28;20043;-73
2023/12/09 00:12:53;;;;;;;4.07;1.25;;;7.50;94.00;;;;;;5113201;28;20122;-73
2023/12/09 00:15:18;;;;;;;3.75;0.98;;;7.50;94.00;;;;;;5112060;28;20040;-73
2023/12/09 00:17:44;;;;;;;2.25;1.15;;;7.50;93.90;;;;;;5111412;28;20044;-73
2023/12/09 00:20:10;;;;;;;3.05;1.55;;;7.60;94.00;;;;;;5094046;28;20525;-73
2023/12/09 00:22:36;;;;;;;2.20;1.10;;;7.60;94.00;;;;;;5096466;27;20048;-74
2023/12/09 00:25:03;;;;;;;4.20;1.13;;;7.50;93.90;;;;;;5133457;27;20046;-73
2023/12/09 00:27:29;;;;;;;1.35;0.93;;;7.50;93.90;;;;;;5132760;27;20043;-74
2023/12/09 00:29:58;;;;;;;2.13;1.02;;;7.60;93.90;;;;;;5097789;27;20046;-73
2023/12/09 00:32:24;;;;;;;2.22;1.15;;;7.60;93.90;;;;;;5132901;27;20035;-73
2023/12/09 00:34:50;;;;;;;2.35;1.10;;;7.50;93.90;;;;;;5132599;27;20065;-73
2023/12/09 00:37:15;;;;;;;2.75;1.25;;;7.60;93.90;;;;;;5133496;27;20103;-73
2023/12/09 00:39:41;;;;;;;2.53;1.23;;;7.60;93.90;;;;;;5132912;27;20505;-73
2023/12/09 00:42:07;;;;;;;3.75;1.27;;;7.60;93.90;;;;;;5111518;28;20051;-73
2023/12/09 00:44:32;;;;;;;3.08;1.30;;;7.70;93.90;;;;;;5110883;28;20126;-73
2023/12/09 00:46:58;;;;;;;2.75;1.23;;;7.60;93.90;;;;;;5093854;28;20407;-74
2023/12/09 00:49:24;;;;;;;3.75;1.17;;;7.60;93.90;;;;;;5111521;28;20043;-74
2023/12/09 00:51:49;;;;;;;2.70;1.38;;;7.50;93.90;;;;;;5109419;28;20459;-73
2023/12/09 00:54:15;;;;;;;3.20;1.20;;;7.50;93.90;;;;;;5110256;28;20036;-73
2023/12/09 00:56:41;;;;;;;2.53;1.25;;;7.50;93.90;;;;;;5093021;28;20050;-73
2023/12/09 00:59:07;;;;;;;4.57;1.35;;;7.50;93.90;;;;;;5110361;28;20039;-73
2023/12/09 01:01:33;;;;;;;3.00;1.10;;;7.50;93.90;;;;;;5109812;28;20054;-73
2023/12/09 01:04:00;;;;;;;3.72;1.50;;;7.50;93.90;;;;;;5092891;28;20044;-73
2023/12/09 01:06:27;;;;;;;3.63;1.40;;;7.40;93.90;;;;;;5109749;28;20085;-73
2023/12/09 01:08:53;;;;;;;3.00;1.33;;;7.50;94.00;;;;;;5109977;28;20094;-73
2023/12/09 01:11:19;;;;;;;4.30;1.20;;;7.50;94.00;;;;;;5110140;28;20194;-74
2023/12/09 01:13:44;;;;;;;2.97;1.33;;;7.50;94.00;;;;;;5092601;28;20040;-73
2023/12/09 01:16:10;;;;;;;2.17;1.23;;;7.50;94.00;;;;;;5076225;28;20422;-73
2023/12/09 01:18:36;;;;;;;2.13;1.15;;;7.50;94.00;;;;;;5092614;28;20036;-73
2023/12/09 01:21:01;;;;;;;3.08;1.35;;;7.40;93.90;;;;;;5109366;28;20036;-73
2023/12/09 01:23:27;;;;;;;2.75;1.20;;;7.40;94.00;;;;;;5105393;28;20407;-73
2023/12/09 01:25:53;;;;;;;3.17;1.02;;;7.40;94.00;;;;;;5111284;28;20398;-73
2023/12/09 01:28:19;;;;;;;2.65;1.10;;;7.40;94.00;;;;;;5097603;28;20130;-73
2023/12/09 01:30:45;;;;;;;3.08;1.17;;;7.40;94.00;;;;;;5135575;27;20150;-73
2023/12/09 01:33:11;;;;;;;2.22;1.15;;;7.30;94.00;;;;;;5100381;27;20068;-73
2023/12/09 01:35:36;;;;;;;2.78;1.15;;;7.30;94.00;;;;;;5117030;27;20052;-73
2023/12/09 01:38:02;;;;;;;3.78;1.00;;;7.30;94.00;;;;;;5083311;27;20045;-73
2023/12/09 01:40:28;;;;;;;3.85;1.02;;;7.30;94.00;;;;;;5117131;27;20149;-73
2023/12/09 01:42:54;;;;;;;3.95;1.20;;;7.30;94.00;;;;;;5083246;28;20051;-73
2023/12/09 01:45:20;;;;;;;2.50;1.10;;;7.30;94.10;;;;;;5099597;28;20050;-72
2023/12/09 01:47:47;;;;;;;1.83;1.02;;;7.30;94.00;;;;;;5135447;27;20042;-73
2023/12/09 01:50:15;;;;;;;3.13;1.25;;;7.30;94.10;;;;;;5116824;27;20063;-72
2023/12/09 01:52:41;;;;;;;3.70;1.17;;;7.30;94.10;;;;;;5135345;27;20023;-72
2023/12/09 01:55:10;;;;;;;1.50;0.98;;;7.20;94.10;;;;;;5116839;27;20043;-72
2023/12/09 01:57:36;;;;;;;4.53;1.48;;;7.30;94.10;;;;;;5135622;27;20035;-73
2023/12/09 02:00:04;;;;;;;4.00;1.10;;;7.30;94.10;;;;;;5100333;28;20046;-73
2023/12/09 02:02:30;;;;;;;2.60;1.13;;;7.30;94.10;;;;;;5113108;28;20130;-74
2023/12/09 02:04:57;;;;;;;1.88;1.02;;;7.30;94.00;;;;;;5113620;28;20044;-73
2023/12/09 02:07:23;;;;;;;2.50;0.93;;;7.20;94.00;;;;;;5113523;28;20059;-72
2023/12/09 02:09:49;;;;;;;2.95;1.25;;;7.20;94.00;;;;;;5133683;27;20046;-73
2023/12/09 02:12:35;;;;;;;3.10;1.35;;;7.20;94.10;;;;;;5116659;28;20432;-72
2023/12/09 02:15:22;;;;;;;4.97;1.50;;;7.10;94.10;;;;;;5119533;27;20043;-72
2023/12/09 02:17:59;;;;;;;5.85;1.50;;;7.20;94.20;;;;;;5135186;27;20505;-72
2023/12/09 02:20:26;;;;;;;3.25;1.30;;;7.20;94.10;;;;;;5116534;27;20468;-73
2023/12/09 02:23:12;;;;;;;4.20;1.40;;;7.20;94.10;;;;;;5135216;27;20071;-73
2023/12/09 02:25:39;;;;;;;3.25;1.23;;;7.20;94.10;;;;;;5134755;27;20039;-73
2023/12/09 02:28:12;;;;;;;3.25;1.30;;;7.20;94.10;;;;;;5116486;27;20603;-73
2023/12/09 02:31:01;;;;;;;3.03;1.15;;;7.30;94.00;;;;;;5134864;27;20047;-73
2023/12/09 02:33:29;;;;;;;2.38;1.25;;;7.20;94.00;;;;;;5116898;27;20039;-73
2023/12/09 02:35:59;;;;;;;2.83;1.33;;;7.20;94.00;;;;;;5135179;27;20881;-73
2023/12/09 02:38:27;;;;;;;3.22;1.20;;;7.10;93.90;;;;;;5134143;27;22323;-73
2023/12/09 02:40:53;;;;;;;2.75;1.15;;;7.20;94.00;;;;;;5134642;27;20432;-73
2023/12/09 02:43:19;;;;;;;2.92;1.50;;;7.10;93.90;;;;;;5095866;28;20058;-72
2023/12/09 02:45:45;;;;;;;2.47;1.00;;;7.10;94.00;;;;;;5113777;28;20454;-72
2023/12/09 02:48:11;;;;;;;2.97;1.15;;;7.10;94.00;;;;;;5116236;28;20079;-72
2023/12/09 02:50:37;;;;;;;3.35;1.35;;;7.10;94.00;;;;;;5134158;27;20081;-73
2023/12/09 02:53:03;;;;;;;3.35;1.40;;;7.10;94.10;;;;;;5134242;27;20039;-72
2023/12/09 02:55:29;;;;;;;3.78;1.40;;;7.10;94.10;;;;;;5115765;27;20043;-73
2023/12/09 02:57:56;;;;;;;4.13;1.65;;;7.10;94.00;;;;;;5115717;28;20039;-72
2023/12/09 03:00:21;;;;;;;2.92;1.10;;;7.10;94.00;;;;;;5134205;27;20042;-72
2023/12/09 03:02:47;;;;;;;3.53;1.30;;;7.10;94.00;;;;;;5134668;27;20375;-73
2023/12/09 03:05:13;;;;;;;2.75;1.10;;;7.00;94.00;;;;;;5134011;27;20047;-73
2023/12/09 03:07:38;;;;;;;2.22;1.10;;;7.00;94.10;;;;;;5134255;27;20048;-73
2023/12/09 03:10:04;;;;;;;3.60;1.08;;;7.00;94.10;;;;;;5081619;27;20498;-74
2023/12/09 03:12:30;;;;;;;1.60;1.00;;;6.90;94.10;;;;;;5098494;27;20031;-73
2023/12/09 03:14:56;;;;;;;1.92;0.85;;;6.90;94.20;;;;;;5115552;27;20486;-73
2023/12/09 03:17:21;;;;;;;1.95;1.00;;;6.90;94.10;;;;;;5112110;28;20177;-73
2023/12/09 03:19:47;;;;;;;2.85;1.08;;;6.90;94.20;;;;;;5113874;28;20031;-74
2023/12/09 03:22:13;;;;;;;2.65;1.10;;;6.80;94.10;;;;;;5128340;27;20032;-73
2023/12/09 03:24:42;;;;;;;1.60;0.95;;;6.70;94.20;;;;;;5134029;27;20062;-72
2023/12/09 03:27:08;;;;;;;3.40;1.23;;;6.70;94.20;;;;;;5130194;27;20128;-73
2023/12/09 03:29:35;;;;;;;2.13;1.10;;;6.70;94.20;;;;;;5115375;28;20039;-73
2023/12/09 03:32:01;;;;;;;2.80;1.00;;;6.70;94.20;;;;;;5111801;28;20398;-73
2023/12/09 03:34:27;;;;;;;2.17;0.90;;;6.70;94.20;;;;;;5111905;28;20051;-73
2023/12/09 03:36:52;;;;;;;4.32;0.95;;;6.70;94.30;;;;;;5129397;27;20035;-73
2023/12/09 03:39:18;;;;;;;1.48;1.05;;;6.70;94.30;;;;;;5111610;28;20495;-73
2023/12/09 03:41:44;;;;;;;1.52;0.90;;;6.70;94.30;;;;;;5126184;27;20375;-73
2023/12/09 03:44:10;;;;;;;2.10;0.90;;;6.60;94.20;;;;;;5115322;27;20054;-73
2023/12/09 03:46:36;;;;;;;3.60;1.08;;;6.60;94.20;;;;;;5133567;27;20425;-73
2023/12/09 03:49:02;;;;;;;1.15;0.75;;;6.60;94.50;;;;;;5110898;28;20044;-73
2023/12/09 03:51:27;;;;;;;3.53;1.00;;;6.60;94.30;;;;;;5129783;27;20126;-73
2023/12/09 03:53:54;;;;;;;3.47;1.00;;;6.60;94.30;;;;;;5133379;27;20512;-73
2023/12/09 03:56:21;;;;;;;4.20;1.15;;;6.60;94.30;;;;;;5097762;27;20051;-73
2023/12/09 03:58:48;;;;;;;2.28;0.93;;;6.60;94.30;;;;;;5115043;28;20039;-73
2023/12/09 04:01:13;;;;;;;2.17;1.00;;;6.60;94.30;;;;;;5133414;27;20039;-73
2023/12/09 04:03:39;;;;;;;1.35;0.80;;;6.70;94.20;;;;;;5115673;28;20126;-73
2023/12/09 04:06:05;;;;;;;3.15;1.00;;;6.50;94.20;;;;;;5133354;27;20366;-73
2023/12/09 04:08:31;;;;;;;4.65;1.13;;;6.60;94.20;;;;;;5133219;27;20556;-73
2023/12/09 04:10:57;;;;;;;1.60;0.80;;;6.70;94.20;;;;;;5111110;28;20085;-73
2023/12/09 04:13:23;;;;;;;3.38;1.20;;;6.60;94.20;;;;;;5111373;28;20049;-73
2023/12/09 04:15:48;;;;;;;6.25;1.20;;;6.70;94.20;;;;;;5112534;28;20035;-73
2023/12/09 04:18:14;;;;;;;2.05;1.10;;;6.80;94.20;;;;;;5111332;28;20050;-73
2023/12/09 04:20:41;;;;;;;2.05;1.20;;;6.70;94.20;;;;;;5111027;28;20039;-73
2023/12/09 04:23:07;;;;;;;2.28;0.82;;;6.70;94.10;;;;;;5094069;28;20122;-73
2023/12/09 04:25:32;;;;;;;2.95;0.88;;;6.70;94.10;;;;;;5127307;27;20133;-73
2023/12/09 04:27:58;;;;;;;2.63;0.90;;;6.80;94.10;;;;;;5094107;28;20039;-73
2023/12/09 04:30:27;;;;;;;1.02;0.68;;;6.80;94.10;;;;;;5111013;28;20083;-73
2023/12/09 04:32:52;;;;;;;3.58;1.00;;;6.80;94.40;;;;;;5094559;28;20387;-73
2023/12/09 04:35:18;;;;;;;1.75;0.90;;;6.70;94.00;;;;;;5132044;27;20031;-73
2023/12/09 04:37:43;;;;;;;3.80;1.10;;;6.70;94.10;;;;;;5114559;28;20042;-73
2023/12/09 04:40:10;;;;;;;3.13;1.10;;;6.70;94.10;;;;;;5114370;28;20164;-73
2023/12/09 04:42:37;;;;;;;2.42;0.98;;;6.70;94.20;;;;;;5097305;27;20035;-73
2023/12/09 04:45:05;;;;;;;2.38;0.90;;;6.70;94.10;;;;;;5114040;28;20391;-73
2023/12/09 04:47:31;;;;;;;3.58;1.20;;;6.80;94.10;;;;;;5114204;28;20046;-73
2023/12/09 04:49:56;;;;;;;2.85;1.08;;;6.80;94.10;;;;;;5110536;28;20379;-73
2023/12/09 04:52:23;;;;;;;3.08;1.20;;;6.70;94.00;;;;;;5129388;27;20095;-73
2023/12/09 04:54:49;;;;;;;3.47;1.00;;;6.80;94.10;;;;;;5114337;27;20505;-73
2023/12/09 04:57:14;;;;;;;2.92;0.90;;;6.70;94.10;;;;;;5132382;27;20120;-73
2023/12/09 04:59:40;;;;;;;2.60;0.93;;;6.70;94.10;;;;;;5111057;28;20047;-73
2023/12/09 05:02:06;;;;;;;1.95;0.90;;;6.70;94.10;;;;;;5116415;27;20040;-73
2023/12/09 05:04:32;;;;;;;1.60;0.93;;;6.70;94.10;;;;;;5136086;27;20043;-73
2023/12/09 05:06:58;;;;;;;3.80;1.20;;;6.70;94.10;;;;;;5117866;28;20035;-73
2023/12/09 05:09:27;;;;;;;3.13;0.88;;;6.60;94.00;;;;;;5117911;27;20050;-73
2023/12/09 05:11:53;;;;;;;3.67;1.27;;;6.70;94.10;;;;;;5117936;28;20043;-74
2023/12/09 05:14:19;;;;;;;3.13;1.05;;;6.60;94.10;;;;;;5114642;28;20042;-73
2023/12/09 05:16:44;;;;;;;1.90;0.80;;;6.60;94.10;;;;;;5117346;27;20390;-73
2023/12/09 05:19:10;;;;;;;2.40;1.17;;;6.60;94.10;;;;;;5117706;28;20035;-74
2023/12/09 05:21:36;;;;;;;3.45;1.20;;;6.60;94.20;;;;;;5100788;28;20134;-73
2023/12/09 05:24:02;;;;;;;2.17;0.98;;;6.60;94.10;;;;;;5136265;27;20050;-73
2023/12/09 05:26:29;;;;;;;2.08;0.80;;;6.60;94.10;;;;;;5135824;27;20410;-73
2023/12/09 05:28:57;;;;;;;4.00;1.10;;;6.60;94.20;;;;;;5083540;27;20039;-73
2023/12/09 05:31:27;;;;;;;3.75;0.95;;;6.60;94.20;;;;;;5100226;28;20498;-73
2023/12/09 05:33:52;;;;;;;1.88;0.90;;;6.60;94.20;;;;;;5117834;28;20363;-74
2023/12/09 05:36:18;;;;;;;2.10;0.75;;;6.60;94.40;;;;;;5117323;27;20050;-74
2023/12/09 05:38:44;;;;;;;1.88;0.98;;;6.50;94.10;;;;;;5100161;27;20494;-74
2023/12/09 05:41:10;;;;;;;2.60;1.10;;;6.50;94.10;;;;;;5117741;28;20047;-73
2023/12/09 05:43:37;;;;;;;1.90;1.00;;;6.50;94.20;;;;;;5113998;28;20065;-74
2023/12/09 05:46:03;;;;;;;1.08;0.90;;;6.50;94.10;;;;;;5113955;28;20043;-74
2023/12/09 05:48:31;;;;;;;1.90;1.17;;;6.50;94.10;;;;;;5113424;28;20039;-74
2023/12/09 05:50:57;;;;;;;4.40;1.00;;;6.50;94.10;;;;;;5115982;28;20054;-74
2023/12/09 05:53:23;;;;;;;3.83;1.33;;;6.50;94.10;;;;;;5135986;27;20133;-74
2023/12/09 05:55:48;;;;;;;1.98;1.10;;;6.50;94.10;;;;;;5135790;27;20046;-74
2023/12/09 05:58:14;;;;;;;3.38;0.93;;;6.50;94.20;;;;;;5135905;27;20043;-74
2023/12/09 06:00:40;;;;;;;2.38;0.90;;;6.50;94.10;;;;;;5116784;28;20050;-75
2023/12/09 06:03:05;;;;;;;1.52;0.85;;;6.50;94.10;;;;;;5135069;27;20039;-74
2023/12/09 06:05:31;;;;;;;3.97;1.10;;;6.60;94.10;;;;;;5135554;27;20512;-74
2023/12/09 06:07:57;;;;;;;2.72;1.00;;;6.50;94.10;;;;;;5135681;27;20180;-74
2023/12/09 06:10:22;;;;;;;2.92;1.20;;;6.50;94.10;;;;;;5134891;27;20531;-74
2023/12/09 06:12:48;;;;;;;2.05;0.90;;;6.50;94.10;;;;;;5099072;27;20494;-74
2023/12/09 06:15:14;;;;;;;1.88;0.95;;;6.50;94.10;;;;;;5117003;27;20054;-74
2023/12/09 06:17:39;;;;;;;4.50;1.20;;;6.40;94.10;;;;;;5099808;27;20043;-74
2023/12/09 06:20:08;;;;;;;2.85;0.98;;;6.50;94.10;;;;;;5135078;27;20114;-74
2023/12/09 06:22:34;;;;;;;2.08;0.88;;;6.50;94.10;;;;;;5116851;27;20099;-74
2023/12/09 06:25:00;;;;;;;2.20;1.00;;;6.50;94.10;;;;;;5135200;27;20027;-74
2023/12/09 06:27:25;;;;;;;1.65;1.00;;;6.50;94.10;;;;;;5116686;27;20049;-74
2023/12/09 06:29:52;;;;;;;1.58;0.90;;;6.50;94.10;;;;;;5115663;28;20461;-74
2023/12/09 06:32:17;;;;;;;4.45;1.10;;;6.40;94.10;;;;;;5099319;27;20041;-74
2023/12/09 06:34:43;;;;;;;4.00;1.35;;;6.50;94.10;;;;;;5116623;27;20106;-74
2023/12/09 06:37:09;;;;;;;4.70;1.20;;;6.50;94.10;;;;;;5116497;27;20042;-75
2023/12/09 06:39:35;;;;;;;3.83;1.20;;;6.50;94.10;;;;;;5116834;27;20043;-75
2023/12/09 06:42:00;;;;;;;2.42;1.10;;;6.50;94.00;;;;;;5096207;28;20126;-74
2023/12/09 06:44:26;;;;;;;2.60;1.08;;;6.50;94.00;;;;;;5116147;28;20038;-75
2023/12/09 06:46:52;;;;;;;1.90;1.10;;;6.50;94.00;;;;;;5116199;27;20232;-74
2023/12/09 06:49:18;;;;;;;2.38;1.20;;;6.60;94.00;;;;;;5116391;28;20045;-74
2023/12/09 06:51:45;;;;;;;5.82;1.45;;;6.60;94.00;;;;;;5112757;28;20054;-74
2023/12/09 06:54:11;;;;;;;3.72;1.30;;;6.60;94.00;;;;;;5119320;27;20037;-74
2023/12/09 06:56:38;;;;;;;2.35;0.90;;;6.60;93.90;;;;;;5134933;27;20043;-74
2023/12/09 06:59:04;;;;;;;3.35;1.20;;;6.60;93.90;;;;;;5134480;27;20069;-75
2023/12/09 07:01:30;;;;;;;2.65;0.90;;;6.60;93.90;;;;;;5116251;27;20126;-74
2023/12/09 07:03:56;;;;;;;3.95;1.20;;;6.50;93.90;;;;;;5134580;27;20538;-75
2023/12/09 07:06:23;;;;;;;2.55;0.85;;;6.60;94.00;;;;;;5134297;27;20047;-75
2023/12/09 07:08:49;;;;;;;2.63;1.30;;;6.60;94.00;;;;;;5099116;27;20047;-74
2023/12/09 07:11:17;;;;;;;3.03;0.85;;;6.60;94.00;;;;;;5112355;28;20078;-74
2023/12/09 07:13:43;;;;;;;2.00;0.93;;;6.60;94.00;;;;;;5113487;28;20037;-74
2023/12/09 07:16:10;;;;;;;3.80;0.90;;;6.70;94.00;;;;;;5133970;27;20031;-74
2023/12/09 07:18:40;;;;;;;1.75;0.75;;;6.60;94.10;;;;;;5115690;28;20053;-75
2023/12/09 07:21:06;;;;;;;2.67;0.90;;;6.60;94.00;;;;;;5099106;27;20070;-75
2023/12/09 07:23:31;;;;;;;1.55;0.75;;;6.60;94.00;;;;;;5111056;28;20506;-74
2023/12/09 07:25:57;;;;;;;2.55;0.95;;;6.60;94.00;;;;;;5112139;28;20039;-75
2023/12/09 07:28:23;;;;;;;2.50;1.05;;;6.60;94.00;;;;;;5113239;28;20575;-74
2023/12/09 07:30:49;;;;;;;3.10;1.13;;;6.60;94.00;;;;;;5113363;28;20040;-74
2023/12/09 07:33:15;;;;;;;2.80;0.98;;;6.70;94.00;;;;;;5111963;28;20044;-74
2023/12/09 07:35:40;;;;;;;2.00;0.82;;;6.70;93.90;;;;;;5114427;27;20403;-74
2023/12/09 07:38:07;;;;;;;1.52;0.90;;;6.70;93.90;;;;;;5098445;28;20035;-74
2023/12/09 07:40:32;;;;;;;1.33;0.80;;;6.70;93.90;;;;;;5115463;28;20054;-74
2023/12/09 07:42:58;;;;;;;2.60;0.80;;;6.70;93.90;;;;;;5081357;28;20492;-74
2023/12/09 07:45:23;;;;;;;3.85;1.08;;;6.80;93.90;;;;;;5134204;27;20039;-73
2023/12/09 07:47:49;;;;;;;1.70;0.90;;;6.80;93.90;;;;;;5114790;27;20047;-74
2023/12/09 07:50:17;;;;;;;3.03;0.90;;;6.80;93.90;;;;;;5115301;28;20509;-74
2023/12/09 07:52:43;;;;;;;5.05;1.10;;;6.80;93.90;;;;;;5133862;27;20475;-74
2023/12/09 07:55:09;;;;;;;3.95;1.17;;;6.80;93.90;;;;;;5115561;28;20042;-74
2023/12/09 07:57:35;;;;;;;1.13;0.50;;;6.80;93.80;;;;;;5133769;27;20554;-74
2023/12/09 08:00:00;;;;;;;3.10;0.90;;;6.80;94.10;;;;;;5133988;27;20118;-74
2023/12/09 08:02:26;;;;;;;1.45;0.70;;;6.80;93.80;;;;;;5115365;27;20039;-74
2023/12/09 08:04:52;;;;;;;2.30;0.73;;;6.90;93.90;;;;;;5115257;28;20050;-75
2023/12/09 08:07:18;;;;;;;2.33;0.80;;;6.90;93.80;;;;;;5133399;27;20443;-74
2023/12/09 08:09:43;;;;;;;2.00;0.70;;;6.90;93.80;;;;;;5133115;27;20035;-74
2023/12/09 08:12:09;;;;;;;4.97;1.02;;;7.00;93.80;;;;;;5093234;28;20419;-74
2023/12/09 08:14:35;;;;;;;4.05;1.20;;;7.00;93.70;;;;;;5111118;28;20128;-74
2023/12/09 08:17:00;;;;;;;2.05;0.98;;;7.00;93.80;;;;;;5093609;28;20529;-73
2023/12/09 08:19:26;;;;;;;2.88;1.20;;;7.00;93.70;;;;;;5076699;28;20039;-74
2023/12/09 08:21:52;;;;;;;1.38;0.80;;;7.20;93.70;;;;;;5093485;28;20130;-74
2023/12/09 08:24:18;;;;;;;2.67;0.93;;;7.10;93.70;;;;;;5111019;28;20062;-74
2023/12/09 08:26:44;;;;;;;2.15;0.98;;;7.10;93.70;;;;;;5093308;28;20566;-74
2023/12/09 08:29:14;;;;;;;2.25;0.82;;;7.10;93.60;;;;;;5093659;28;20047;-74
2023/12/09 08:31:40;;;;;;;1.38;0.70;;;7.20;93.70;;;;;;5110582;28;20065;-74
2023/12/09 08:34:06;;;;;;;3.17;0.80;;;7.10;93.60;;;;;;5093690;28;20040;-74
2023/12/09 08:36:31;;;;;;;4.30;0.98;;;7.10;93.70;;;;;;5116701;27;20052;-74
2023/12/09 08:38:58;;;;;;;2.15;0.93;;;7.20;93.70;;;;;;5117127;28;20126;-74
2023/12/09 08:41:27;;;;;;;2.25;0.70;;;7.20;93.70;;;;;;5100172;28;20039;-74
2023/12/09 08:43:53;;;;;;;2.47;0.95;;;7.20;93.70;;;;;;5118758;27;20035;-74
2023/12/09 08:46:18;;;;;;;1.52;0.80;;;7.20;93.60;;;;;;5134425;27;20039;-74
2023/12/09 08:48:45;;;;;;;2.28;1.08;;;7.30;93.60;;;;;;5121120;27;20380;-74
2023/12/09 08:51:11;;;;;;;2.97;0.90;;;7.40;93.60;;;;;;5139785;27;20038;-74
2023/12/09 08:53:36;;;;;;;1.48;0.57;;;7.30;93.60;;;;;;5140046;27;20047;-75
2023/12/09 08:56:03;;;;;;;2.42;0.63;;;7.30;93.60;;;;;;5140137;27;20042;-74
2023/12/09 08:58:28;;;;;;;1.95;0.68;;;7.40;93.60;;;;;;5139931;27;20035;-74
2023/12/09 09:00:57;;;;;;;2.30;0.65;;;7.40;93.50;;;;;;5139440;27;20095;-74
2023/12/09 09:03:23;;;;;;;1.83;0.70;;;7.40;93.50;;;;;;5117729;28;20043;-74
2023/12/09 09:05:48;;;;;;;1.17;0.80;;;7.40;93.50;;;;;;5117609;28;20398;-74
2023/12/09 09:08:14;;;;;;;2.22;0.70;;;7.40;93.50;;;;;;5126864;27;20082;-74
2023/12/09 09:10:40;;;;;;;3.15;0.70;;;7.40;93.50;;;;;;5140040;27;20054;-74
2023/12/09 09:13:06;;;;;;;1.33;0.80;;;7.40;93.50;;;;;;5120984;27;20578;-74
2023/12/09 09:15:32;;;;;;;1.60;0.60;;;7.40;93.50;;;;;;5117867;28;20040;-74
2023/12/09 09:17:58;;;;;;;1.85;0.57;;;7.50;93.50;;;;;;5100397;28;20031;-73
2023/12/09 09:20:27;;;;;;;2.80;0.85;;;7.50;93.50;;;;;;5117301;27;20040;-74
2023/12/09 09:22:52;;;;;;;2.13;0.75;;;7.50;93.50;;;;;;5138269;27;20049;-74
2023/12/09 09:25:18;;;;;;;1.27;0.80;;;7.50;93.50;;;;;;5139142;27;20035;-74
2023/12/09 09:27:44;;;;;;;2.95;0.60;;;7.50;93.40;;;;;;5139361;27;20043;-75
2023/12/09 09:30:10;;;;;;;2.10;0.75;;;7.60;93.40;;;;;;5103803;27;20131;-74
2023/12/09 09:32:36;;;;;;;2.67;0.57;;;7.60;93.40;;;;;;5139408;27;20096;-74
2023/12/09 09:35:03;;;;;;;1.50;0.60;;;7.60;93.40;;;;;;5135362;27;20039;-74
2023/12/09 09:37:29;;;;;;;1.02;0.70;;;7.60;93.40;;;;;;5138956;27;20039;-74
2023/12/09 09:39:57;;;;;;;1.92;0.90;;;7.60;93.40;;;;;;5139126;27;20034;-74
2023/12/09 09:42:36;;;;;;;1.27;0.60;;;7.60;93.40;;;;;;5116957;27;20131;-74
2023/12/09 09:45:22;;;;;;;0.88;0.50;;;7.70;93.40;;;;;;5137164;27;20084;-74
2023/12/09 09:47:49;;;;;;;1.02;0.60;;;7.60;93.40;;;;;;5112745;28;20093;-75
2023/12/09 09:50:21;;;;;;;2.22;0.70;;;7.80;93.40;;;;;;5113516;28;20541;-75
2023/12/09 09:52:48;;;;;;;1.52;0.88;;;7.80;93.40;;;;;;5100516;27;20126;-75
2023/12/09 09:55:16;;;;;;;1.75;0.88;;;7.80;93.40;;;;;;5114081;28;20048;-74
2023/12/09 09:57:43;;;;;;;2.10;0.90;;;7.80;93.30;;;;;;5113764;28;20039;-74
2023/12/09 10:00:14;;;;;;;1.25;0.68;;;7.80;93.30;;;;;;5114575;28;20069;-74
2023/12/09 10:02:45;;;;;;;1.10;0.70;;;7.80;93.30;;;;;;5114944;27;20031;-75
2023/12/09 10:05:12;;;;;;;;;;;7.90;93.30;;;;;;5096704;28;20038;-74
2023/12/09 10:07:39;;;;;;;1.92;0.65;;;7.90;93.30;;;;;;5113168;28;19927;-74
2023/12/09 10:10:06;;;;;;;2.08;0.70;;;8.00;93.20;;;;;;5124318;27;20091;-74
2023/12/09 10:12:33;;;;;;;1.70;0.57;;;8.00;93.20;;;;;;5135431;27;20515;-74
2023/12/09 10:15:01;;;;;;;2.90;0.73;;;8.00;93.10;;;;;;5113180;28;20047;-74
2023/12/09 10:17:27;;;;;;;2.40;0.80;;;8.10;93.10;;;;;;5113751;28;20054;-74
2023/12/09 10:19:57;;;;;;;3.17;0.80;;;8.10;93.10;;;;;;5111307;28;20406;-74
2023/12/09 10:22:25;;;;;;;1.48;0.70;;;8.10;93.10;;;;;;5113376;28;20044;-74
2023/12/09 10:24:52;;;;;;;2.38;0.80;;;8.20;93.10;;;;;;5071386;28;20083;-74
2023/12/09 10:27:20;;;;;;;1.08;0.65;;;8.20;93.10;;;;;;5072098;28;21022;-74
2023/12/09 10:29:46;;;;;;;1.38;0.60;;;8.20;93.10;;;;;;5055276;28;20626;-74
2023/12/09 10:32:12;;;;;;;1.13;0.60;;;8.20;93.00;;;;;;5038488;28;20044;-74
2023/12/09 10:34:39;;;;;;;0.77;0.50;;;8.20;93.00;;;;;;5038019;28;20569;-74
2023/12/09 10:37:08;;;;;;;1.30;0.40;;;8.20;93.00;;;;;;5071910;28;20040;-74
2023/12/09 10:39:34;;;;;;;1.15;0.65;;;8.30;93.00;;;;;;5071169;28;21411;-73
2023/12/09 10:42:00;;;;;;;1.80;0.70;;;8.30;93.00;;;;;;5071727;28;20123;-73
2023/12/09 10:44:26;;;;;;;1.48;0.60;;;8.30;93.00;;;;;;5071539;28;20076;-73
2023/12/09 10:46:51;;;;;;;0.50;0.40;;;8.40;93.00;;;;;;5071184;28;20132;-73
2023/12/09 10:49:18;;;;;;;1.13;0.50;;;8.40;93.00;;;;;;5055120;28;20156;-74
2023/12/09 10:51:44;;;;;;;0.40;0.40;;;8.40;93.00;;;;;;5054525;28;20094;-73
2023/12/09 10:54:10;;;;;;;2.40;0.55;;;8.40;93.00;;;;;;5054524;28;20037;-75
2023/12/09 10:56:36;;;;;;;1.20;0.52;;;8.50;93.00;;;;;;5103702;27;20134;-73
2023/12/09 10:59:03;;;;;;;0.98;0.50;;;8.50;93.00;;;;;;5115836;28;20035;-73
2023/12/09 11:01:29;;;;;;;1.63;0.68;;;8.50;93.00;;;;;;5099387;27;20043;-73
2023/12/09 11:03:59;;;;;;;0.63;0.35;;;8.50;93.00;;;;;;5134691;27;20044;-73
2023/12/09 11:06:29;;;;;;;1.90;0.50;;;8.60;93.00;;;;;;5134321;27;20039;-73
2023/12/09 11:08:56;;;;;;;1.08;0.40;;;8.60;93.00;;;;;;5112280;28;20050;-73
2023/12/09 11:11:23;;;;;;;0.30;0.30;;;8.60;93.00;;;;;;5133486;27;20167;-73
2023/12/09 11:13:49;;;;;;;0.30;0.30;;;8.60;93.00;;;;;;5134819;27;20520;-72
2023/12/09 11:16:18;;;;;;;0.52;0.30;;;8.60;93.00;;;;;;5115766;27;20047;-73
2023/12/09 11:18:56;;;;;;;2.60;0.60;;;8.50;93.00;;;;;;5112944;28;20131;-73
2023/12/09 11:21:26;;;;;;;0.82;0.32;;;8.50;93.00;;;;;;5131065;27;20070;-73
2023/12/09 11:23:53;;;;;;;1.77;0.43;;;8.50;93.00;;;;;;5070527;28;20182;-74
2023/12/09 11:26:28;;;;;;;0.70;0.40;;;8.50;93.00;;;;;;5054648;28;20162;-75
2023/12/09 11:29:04;;;;;;;1.25;0.43;;;8.50;93.10;;;;;;5054209;28;20052;-73
2023/12/09 11:31:36;;;;;;;2.75;0.75;;;8.50;93.10;;;;;;5070644;28;20515;-73
2023/12/09 11:34:03;;;;;;;0.50;0.43;;;8.50;93.10;;;;;;5070386;28;20048;-73
2023/12/09 11:36:30;;;;;;;0.65;0.40;;;8.40;93.10;;;;;;5053613;28;20033;-72
2023/12/09 11:38:58;;;;;;;0.52;0.20;;;8.40;93.10;;;;;;5070625;28;20397;-73
2023/12/09 11:41:25;;;;;;;0.85;0.50;;;8.40;93.10;;;;;;5070942;28;20044;-74
2023/12/09 11:43:51;;;;;;;0.80;0.20;;;8.30;93.10;;;;;;5053982;28;20070;-73
2023/12/09 11:46:17;;;;;;;0.63;0.32;;;8.40;93.20;;;;;;5054134;28;20500;-73
2023/12/09 11:48:44;;;;;;;1.20;0.40;;;8.50;93.20;;;;;;5070928;28;20074;-74
2023/12/09 11:51:10;;;;;;;0.85;0.40;;;8.40;93.20;;;;;;5053628;28;20131;-73
2023/12/09 11:53:35;;;;;;;0.40;0.30;;;8.40;93.20;;;;;;5070549;28;20136;-74
2023/12/09 11:56:01;;;;;;;0.50;0.30;;;8.40;93.20;;;;;;5115016;28;20474;-74
2023/12/09 11:58:27;;;;;;;0.30;0.30;;;8.40;93.20;;;;;;5133722;27;20047;-73
2023/12/09 12:00:52;;;;;;;1.15;0.40;;;8.40;93.20;;;;;;5133573;27;20494;-74
2023/12/09 12:03:19;;;;;;;0.40;0.32;;;8.40;93.20;;;;;;5115184;28;20045;-73
2023/12/09 12:05:44;;;;;;;0.68;0.30;;;8.40;93.20;;;;;;5115770;27;20043;-74
2023/12/09 12:08:15;;;;;;;0.35;0.35;;;8.40;93.20;;;;;;5094510;28;20035;-73
2023/12/09 12:10:41;;;;;;;0.80;0.33;;;8.40;93.20;;;;;;5112059;28;20061;-74
2023/12/09 12:13:07;;;;;;;1.38;0.30;;;8.40;93.20;;;;;;5128047;27;20265;-74
2023/12/09 12:15:34;;;;;;;0.63;0.30;;;8.40;93.20;;;;;;5111696;28;20039;-73
2023/12/09 12:18:01;;;;;;;1.00;0.50;;;8.50;93.20;;;;;;5132437;27;20047;-73
2023/12/09 12:20:26;;;;;;;0.30;0.30;;;8.50;93.20;;;;;;5133135;27;20035;-74
2023/12/09 12:22:52;;;;;;;0.40;0.20;;;8.60;93.20;;;;;;5133066;27;20213;-73
2023/12/09 12:25:18;;;;;;;0.95;0.28;;;8.60;93.20;;;;;;5114911;27;20501;-73
2023/12/09 12:27:44;;;;;;;0.50;0.20;;;8.60;93.10;;;;;;5114449;27;20050;-73
2023/12/09 12:30:10;;;;;;;0.40;0.40;;;8.60;93.10;;;;;;5111351;28;20043;-73
2023/12/09 12:32:37;;;;;;;0.50;0.40;;;8.60;93.00;;;;;;5110950;28;20400;-73
2023/12/09 12:35:08;;;;;;;0.85;0.30;;;8.60;93.00;;;;;;5128263;27;20486;-73
2023/12/09 12:37:34;;;;;;;1.30;0.40;;;8.70;93.10;;;;;;5114517;27;20035;-73
2023/12/09 12:39:59;;;;;;;0.63;0.40;;;8.60;93.10;;;;;;5094113;28;20104;-74
2023/12/09 12:42:25;;;;;;;0.70;0.40;;;8.50;93.10;;;;;;5111907;28;20105;-73
2023/12/09 12:44:51;;;;;;;0.38;0.25;;;8.60;93.10;;;;;;5094231;28;20044;-73
2023/12/09 12:47:17;;;;;;;0.60;0.40;;;8.60;93.10;;;;;;5128278;27;20043;-73
2023/12/09 12:49:43;;;;;;;0.77;0.40;;;8.50;93.10;;;;;;5132825;27;20512;-73
2023/12/09 12:52:09;;;;;;;0.28;0.20;;;8.50;93.20;;;;;;5114584;28;20116;-74
2023/12/09 12:54:35;;;;;;;0.80;0.40;;;8.50;93.20;;;;;;5132772;27;20046;-74